sensor_id;sensor_type;location;lat;lon;timestamp;pressure;altitude;pressure_sealevel;temperature;humidity
50854;BME280;44154;45.506;-122.806;2023-04-01T00:01:44;100612.31;;;26.42;29.89
50854;BME280;44154;45.506;-122.806;2023-04-01T00:04:10;100598.00;;;26.19;29.95
50854;BME280;44154;45.506;-122.806;2023-04-01T00:06:36;100598.50;;;26.06;30.01
50854;BME280;44154;45.506;-122.806;2023-04-01T00:09:03;100583.63;;;25.86;30.44
50854;BME280;44154;45.506;-122.806;2023-04-01T00:11:30;100594.56;;;25.81;30.52
50854;BME280;44154;45.506;-122.806;2023-04-01T00:13:56;100583.81;;;25.64;30.85
50854;BME280;44154;45.506;-122.806;2023-04-01T00:16:22;100588.19;;;25.60;31.01
50854;BME280;44154;45.506;-122.806;2023-04-01T00:18:49;100580.19;;;25.53;30.92
50854;BME280;44154;45.506;-122.806;2023-04-01T00:21:16;100579.09;;;25.49;30.94
50854;BME280;44154;45.506;-122.806;2023-04-01T00:23:42;100562.88;;;25.42;31.04
50854;BME280;44154;45.506;-122.806;2023-04-01T00:26:09;100565.50;;;25.75;30.87
50854;BME280;44154;45.506;-122.806;2023-04-01T00:28:35;100574.66;;;26.11;30.70
50854;BME280;44154;45.506;-122.806;2023-04-01T00:31:06;100564.00;;;26.36;30.31
50854;BME280;44154;45.506;-122.806;2023-04-01T00:33:33;100558.53;;;26.46;29.91
50854;BME280;44154;45.506;-122.806;2023-04-01T00:36:16;100554.13;;;26.40;30.20
50854;BME280;44154;45.506;-122.806;2023-04-01T00:38:42;100558.78;;;26.29;30.02
50854;BME280;44154;45.506;-122.806;2023-04-01T00:41:10;100552.44;;;26.13;30.49
50854;BME280;44154;45.506;-122.806;2023-04-01T00:43:40;100548.88;;;26.02;30.71
50854;BME280;44154;45.506;-122.806;2023-04-01T00:46:07;100531.53;;;25.91;30.57
50854;BME280;44154;45.506;-122.806;2023-04-01T00:48:36;100538.97;;;25.96;30.62
50854;BME280;44154;45.506;-122.806;2023-04-01T00:53:33;100527.41;;;25.84;31.01
50854;BME280;44154;45.506;-122.806;2023-04-01T00:56:04;100506.53;;;25.72;30.72
50854;BME280;44154;45.506;-122.806;2023-04-01T00:58:35;100514.25;;;25.80;30.73
50854;BME280;44154;45.506;-122.806;2023-04-01T01:01:03;100513.09;;;25.71;30.86
50854;BME280;44154;45.506;-122.806;2023-04-01T01:03:29;100507.38;;;25.68;31.02
50854;BME280;44154;45.506;-122.806;2023-04-01T01:06:10;100504.59;;;25.57;31.17
50854;BME280;44154;45.506;-122.806;2023-04-01T01:08:45;100500.22;;;25.61;31.08
50854;BME280;44154;45.506;-122.806;2023-04-01T01:11:22;100495.56;;;25.62;30.97
50854;BME280;44154;45.506;-122.806;2023-04-01T01:14:01;100468.38;;;25.45;31.16
50854;BME280;44154;45.506;-122.806;2023-04-01T01:16:39;100469.78;;;25.53;31.52
50854;BME280;44154;45.506;-122.806;2023-04-01T01:27:09;100484.91;;;25.66;32.84
50854;BME280;44154;45.506;-122.806;2023-04-01T01:29:58;100474.44;;;25.57;33.72
50854;BME280;44154;45.506;-122.806;2023-04-01T01:37:41;100464.56;;;25.56;34.48
50854;BME280;44154;45.506;-122.806;2023-04-01T01:40:10;100463.19;;;25.54;34.02
50854;BME280;44154;45.506;-122.806;2023-04-01T01:42:40;100461.00;;;25.51;34.31
50854;BME280;44154;45.506;-122.806;2023-04-01T01:45:10;100428.34;;;25.34;34.53
50854;BME280;44154;45.506;-122.806;2023-04-01T01:47:39;100445.63;;;25.44;33.82
50854;BME280;44154;45.506;-122.806;2023-04-01T01:50:07;100454.69;;;25.55;33.42
50854;BME280;44154;45.506;-122.806;2023-04-01T01:52:33;100451.38;;;25.48;33.02
50854;BME280;44154;45.506;-122.806;2023-04-01T01:55:00;100452.50;;;25.52;33.28
50854;BME280;44154;45.506;-122.806;2023-04-01T01:57:33;100450.88;;;25.51;33.47
50854;BME280;44154;45.506;-122.806;2023-04-01T02:00:10;100443.75;;;25.50;33.39
50854;BME280;44154;45.506;-122.806;2023-04-01T02:02:44;100426.19;;;25.46;33.31
50854;BME280;44154;45.506;-122.806;2023-04-01T02:05:16;100420.16;;;25.44;33.47
50854;BME280;44154;45.506;-122.806;2023-04-01T02:07:48;100417.94;;;25.41;33.71
50854;BME280;44154;45.506;-122.806;2023-04-01T02:10:18;100414.38;;;25.40;33.49
50854;BME280;44154;45.506;-122.806;2023-04-01T02:12:46;100393.84;;;25.33;33.45
50854;BME280;44154;45.506;-122.806;2023-04-01T02:15:14;100414.13;;;25.42;33.72
50854;BME280;44154;45.506;-122.806;2023-04-01T02:17:45;100407.28;;;25.44;33.69
50854;BME280;44154;45.506;-122.806;2023-04-01T02:20:19;100410.28;;;25.43;33.76
50854;BME280;44154;45.506;-122.806;2023-04-01T02:22:51;100408.91;;;25.40;33.81
50854;BME280;44154;45.506;-122.806;2023-04-01T02:25:25;100390.81;;;25.39;33.71
50854;BME280;44154;45.506;-122.806;2023-04-01T02:27:53;100386.75;;;25.62;33.26
50854;BME280;44154;45.506;-122.806;2023-04-01T02:30:21;100398.03;;;25.82;33.49
50854;BME280;44154;45.506;-122.806;2023-04-01T02:32:48;100384.03;;;25.78;33.18
50854;BME280;44154;45.506;-122.806;2023-04-01T02:35:16;100395.56;;;25.85;33.03
50854;BME280;44154;45.506;-122.806;2023-04-01T02:37:46;100378.84;;;25.82;33.21
50854;BME280;44154;45.506;-122.806;2023-04-01T02:40:15;100388.97;;;25.81;33.36
50854;BME280;44154;45.506;-122.806;2023-04-01T02:42:42;100381.56;;;25.76;33.38
50854;BME280;44154;45.506;-122.806;2023-04-01T02:45:09;100388.97;;;25.66;33.42
50854;BME280;44154;45.506;-122.806;2023-04-01T02:47:36;100376.09;;;25.66;33.36
50854;BME280;44154;45.506;-122.806;2023-04-01T02:50:02;100377.72;;;25.67;33.23
50854;BME280;44154;45.506;-122.806;2023-04-01T02:52:30;100380.75;;;25.71;33.47
50854;BME280;44154;45.506;-122.806;2023-04-01T02:54:56;100375.81;;;25.57;33.60
50854;BME280;44154;45.506;-122.806;2023-04-01T02:57:24;100367.00;;;25.55;33.36
50854;BME280;44154;45.506;-122.806;2023-04-01T02:59:50;100361.00;;;25.53;33.29
50854;BME280;44154;45.506;-122.806;2023-04-01T03:02:17;100364.00;;;25.52;33.02
50854;BME280;44154;45.506;-122.806;2023-04-01T03:04:43;100362.91;;;25.53;33.02
50854;BME280;44154;45.506;-122.806;2023-04-01T03:07:09;100351.66;;;25.49;32.81
50854;BME280;44154;45.506;-122.806;2023-04-01T03:09:37;100336.31;;;25.38;32.85
50854;BME280;44154;45.506;-122.806;2023-04-01T03:12:03;100347.25;;;25.38;33.14
50854;BME280;44154;45.506;-122.806;2023-04-01T03:14:29;100354.41;;;25.44;33.06
50854;BME280;44154;45.506;-122.806;2023-04-01T03:16:55;100358.50;;;25.41;33.05
50854;BME280;44154;45.506;-122.806;2023-04-01T03:19:21;100342.91;;;25.37;33.38
50854;BME280;44154;45.506;-122.806;2023-04-01T03:21:47;100311.34;;;25.24;33.63
50854;BME280;44154;45.506;-122.806;2023-04-01T03:24:13;100335.50;;;25.37;33.65
50854;BME280;44154;45.506;-122.806;2023-04-01T03:26:39;100347.78;;;25.30;33.30
50854;BME280;44154;45.506;-122.806;2023-04-01T03:29:06;100344.72;;;25.16;33.60
50854;BME280;44154;45.506;-122.806;2023-04-01T03:31:32;100347.47;;;25.21;33.95
50854;BME280;44154;45.506;-122.806;2023-04-01T03:33:58;100349.72;;;25.39;33.54
50854;BME280;44154;45.506;-122.806;2023-04-01T03:36:24;100348.94;;;25.59;33.36
50854;BME280;44154;45.506;-122.806;2023-04-01T03:38:50;100333.59;;;25.63;33.13
50854;BME280;44154;45.506;-122.806;2023-04-01T03:41:17;100334.97;;;25.76;33.04
50854;BME280;44154;45.506;-122.806;2023-04-01T03:43:44;100336.59;;;25.83;32.77
50854;BME280;44154;45.506;-122.806;2023-04-01T03:46:10;100343.75;;;25.84;32.39
50854;BME280;44154;45.506;-122.806;2023-04-01T03:48:36;100346.75;;;25.77;32.72
50854;BME280;44154;45.506;-122.806;2023-04-01T03:51:07;100342.63;;;25.79;32.61
50854;BME280;44154;45.506;-122.806;2023-04-01T03:53:34;100336.91;;;25.76;32.29
50854;BME280;44154;45.506;-122.806;2023-04-01T03:56:04;100334.69;;;25.78;32.36
50854;BME280;44154;45.506;-122.806;2023-04-01T03:58:30;100334.69;;;25.78;32.56
50854;BME280;44154;45.506;-122.806;2023-04-01T04:00:57;100337.44;;;25.78;32.39
50854;BME280;44154;45.506;-122.806;2023-04-01T04:03:23;100344.84;;;25.77;32.22
50854;BME280;44154;45.506;-122.806;2023-04-01T04:05:49;100341.25;;;25.77;32.13
50854;BME280;44154;45.506;-122.806;2023-04-01T04:08:16;100346.22;;;25.75;32.15
50854;BME280;44154;45.506;-122.806;2023-04-01T04:10:42;100336.59;;;25.72;31.97
50854;BME280;44154;45.506;-122.806;2023-04-01T04:13:09;100301.81;;;25.47;32.19
50854;BME280;44154;45.506;-122.806;2023-04-01T04:15:35;100339.91;;;25.69;32.27
50854;BME280;44154;45.506;-122.806;2023-04-01T04:18:01;100330.31;;;25.67;32.12
50854;BME280;44154;45.506;-122.806;2023-04-01T04:20:27;100333.06;;;25.61;32.51
50854;BME280;44154;45.506;-122.806;2023-04-01T04:22:53;100320.97;;;25.52;32.22
50854;BME280;44154;45.506;-122.806;2023-04-01T04:25:19;100328.66;;;25.60;32.41
50854;BME280;44154;45.506;-122.806;2023-04-01T04:27:46;100316.63;;;25.51;32.37
50854;BME280;44154;45.506;-122.806;2023-04-01T04:30:12;100328.91;;;25.54;32.78
50854;BME280;44154;45.506;-122.806;2023-04-01T04:32:38;100299.59;;;25.59;32.64
50854;BME280;44154;45.506;-122.806;2023-04-01T04:35:06;100308.63;;;25.86;32.30
50854;BME280;44154;45.506;-122.806;2023-04-01T04:37:32;100298.75;;;25.90;31.86
50854;BME280;44154;45.506;-122.806;2023-04-01T04:39:58;100311.66;;;25.94;31.99
50854;BME280;44154;45.506;-122.806;2023-04-01T04:42:24;100322.63;;;25.94;31.89
50854;BME280;44154;45.506;-122.806;2023-04-01T04:44:51;100307.28;;;25.88;31.75
50854;BME280;44154;45.506;-122.806;2023-04-01T04:47:17;100305.09;;;25.85;31.78
50854;BME280;44154;45.506;-122.806;2023-04-01T04:49:43;100294.13;;;25.80;31.60
50854;BME280;44154;45.506;-122.806;2023-04-01T04:52:09;100299.34;;;25.76;31.57
50854;BME280;44154;45.506;-122.806;2023-04-01T04:54:35;100274.13;;;25.64;31.62
50854;BME280;44154;45.506;-122.806;2023-04-01T04:57:01;100286.47;;;25.72;31.82
50854;BME280;44154;45.506;-122.806;2023-04-01T04:59:28;100288.38;;;25.61;31.88
50854;BME280;44154;45.506;-122.806;2023-04-01T05:01:54;100275.78;;;25.55;31.91
50854;BME280;44154;45.506;-122.806;2023-04-01T05:04:20;100278.78;;;25.63;31.78
50854;BME280;44154;45.506;-122.806;2023-04-01T05:06:46;100278.25;;;25.51;32.39
50854;BME280;44154;45.506;-122.806;2023-04-01T05:09:12;100278.78;;;25.48;32.40
50854;BME280;44154;45.506;-122.806;2023-04-01T05:11:38;100277.13;;;25.62;32.49
50854;BME280;44154;45.506;-122.806;2023-04-01T05:14:05;100273.84;;;25.76;32.14
50854;BME280;44154;45.506;-122.806;2023-04-01T05:16:32;100270.25;;;25.86;31.58
50854;BME280;44154;45.506;-122.806;2023-04-01T05:18:58;100273.56;;;25.88;31.56
50854;BME280;44154;45.506;-122.806;2023-04-01T05:21:25;100281.22;;;25.86;31.64
50854;BME280;44154;45.506;-122.806;2023-04-01T05:23:51;100267.81;;;25.79;31.65
50854;BME280;44154;45.506;-122.806;2023-04-01T05:26:17;100260.16;;;25.66;31.43
50854;BME280;44154;45.506;-122.806;2023-04-01T05:28:43;100276.31;;;25.72;31.77
50854;BME280;44154;45.506;-122.806;2023-04-01T05:31:09;100277.94;;;25.68;31.58
50854;BME280;44154;45.506;-122.806;2023-04-01T05:33:36;100220.69;;;25.31;31.59
50854;BME280;44154;45.506;-122.806;2023-04-01T05:36:11;100267.03;;;25.53;31.73
50854;BME280;44154;45.506;-122.806;2023-04-01T05:38:37;100283.44;;;25.58;31.74
50854;BME280;44154;45.506;-122.806;2023-04-01T05:41:04;100287.56;;;25.50;31.68
50854;BME280;44154;45.506;-122.806;2023-04-01T05:43:30;100273.59;;;25.41;32.15
50854;BME280;44154;45.506;-122.806;2023-04-01T05:45:57;100284.81;;;25.45;32.37
50854;BME280;44154;45.506;-122.806;2023-04-01T05:48:23;100296.31;;;25.62;32.21
50854;BME280;44154;45.506;-122.806;2023-04-01T05:50:49;100304.81;;;25.82;31.63
50854;BME280;44154;45.506;-122.806;2023-04-01T05:53:16;100311.13;;;25.97;31.57
50854;BME280;44154;45.506;-122.806;2023-04-01T05:55:42;100309.75;;;26.00;31.14
50854;BME280;44154;45.506;-122.806;2023-04-01T05:58:08;100316.31;;;25.94;31.18
50854;BME280;44154;45.506;-122.806;2023-04-01T06:00:34;100321.00;;;25.83;31.47
50854;BME280;44154;45.506;-122.806;2023-04-01T06:03:00;100313.59;;;25.73;31.87
50854;BME280;44154;45.506;-122.806;2023-04-01T06:05:40;100327.56;;;25.77;31.33
50854;BME280;44154;45.506;-122.806;2023-04-01T06:08:15;100335.50;;;25.78;31.26
50854;BME280;44154;45.506;-122.806;2023-04-01T06:11:10;100323.75;;;25.73;31.47
50854;BME280;44154;45.506;-122.806;2023-04-01T06:17:01;100343.19;;;25.56;31.31
50854;BME280;44154;45.506;-122.806;2023-04-01T06:19:47;100338.78;;;25.50;31.67
50854;BME280;44154;45.506;-122.806;2023-04-01T06:30:54;100356.31;;;25.54;31.60
50854;BME280;44154;45.506;-122.806;2023-04-01T06:47:58;100359.88;;;25.49;31.77
50854;BME280;44154;45.506;-122.806;2023-04-01T06:56:18;100370.56;;;25.40;32.60
50854;BME280;44154;45.506;-122.806;2023-04-01T07:01:35;100386.19;;;25.40;32.59
50854;BME280;44154;45.506;-122.806;2023-04-01T07:04:14;100394.41;;;25.40;32.77
50854;BME280;44154;45.506;-122.806;2023-04-01T07:07:16;100393.28;;;25.36;32.85
50854;BME280;44154;45.506;-122.806;2023-04-01T07:09:50;100383.38;;;25.24;32.60
50854;BME280;44154;45.506;-122.806;2023-04-01T07:14:44;100396.31;;;25.34;32.87
50854;BME280;44154;45.506;-122.806;2023-04-01T07:17:23;100394.91;;;25.32;32.96
50854;BME280;44154;45.506;-122.806;2023-04-01T07:20:37;100397.09;;;25.30;32.78
50854;BME280;44154;45.506;-122.806;2023-04-01T07:22:58;100396.53;;;25.22;32.88
50854;BME280;44154;45.506;-122.806;2023-04-01T07:25:38;100397.06;;;25.24;32.98
50854;BME280;44154;45.506;-122.806;2023-04-01T07:28:14;100389.09;;;25.18;33.82
50854;BME280;44154;45.506;-122.806;2023-04-01T07:33:48;100399.34;;;25.43;34.68
50854;BME280;44154;45.506;-122.806;2023-04-01T07:42:01;100412.00;;;25.75;34.51
50854;BME280;44154;45.506;-122.806;2023-04-01T07:45:09;100404.31;;;25.67;35.15
50854;BME280;44154;45.506;-122.806;2023-04-01T07:48:05;100401.56;;;25.51;35.56
50854;BME280;44154;45.506;-122.806;2023-04-01T07:50:48;100404.81;;;25.48;35.76
50854;BME280;44154;45.506;-122.806;2023-04-01T07:56:15;100403.94;;;25.32;35.44
50854;BME280;44154;45.506;-122.806;2023-04-01T07:59:09;100405.81;;;25.26;36.06
50854;BME280;44154;45.506;-122.806;2023-04-01T08:07:18;100415.94;;;25.16;35.06
50854;BME280;44154;45.506;-122.806;2023-04-01T08:12:59;100430.41;;;25.06;35.15
50854;BME280;44154;45.506;-122.806;2023-04-01T08:15:36;100449.28;;;25.02;34.78
50854;BME280;44154;45.506;-122.806;2023-04-01T08:21:00;100432.91;;;25.18;34.04
50854;BME280;44154;45.506;-122.806;2023-04-01T08:23:38;100405.78;;;25.11;33.88
50854;BME280;44154;45.506;-122.806;2023-04-01T08:31:52;100426.16;;;25.41;32.84
50854;BME280;44154;45.506;-122.806;2023-04-01T08:34:27;100430.00;;;25.35;33.45
50854;BME280;44154;45.506;-122.806;2023-04-01T08:37:05;100443.09;;;25.27;34.55
50854;BME280;44154;45.506;-122.806;2023-04-01T08:39:44;100437.84;;;25.21;34.86
50854;BME280;44154;45.506;-122.806;2023-04-01T08:50:35;100439.69;;;25.00;34.50
50854;BME280;44154;45.506;-122.806;2023-04-01T08:53:39;100455.00;;;24.96;34.50
50854;BME280;44154;45.506;-122.806;2023-04-01T08:56:33;100458.53;;;24.91;34.14
50854;BME280;44154;45.506;-122.806;2023-04-01T09:02:16;100458.91;;;25.10;33.86
50854;BME280;44154;45.506;-122.806;2023-04-01T09:07:35;100450.00;;;25.40;33.55
50854;BME280;44154;45.506;-122.806;2023-04-01T09:10:14;100396.47;;;25.07;33.35
50854;BME280;44154;45.506;-122.806;2023-04-01T09:23:43;100456.38;;;25.03;33.87
50854;BME280;44154;45.506;-122.806;2023-04-01T09:26:35;100463.75;;;24.98;33.90
50854;BME280;44154;45.506;-122.806;2023-04-01T09:29:12;100465.69;;;24.97;33.88
50854;BME280;44154;45.506;-122.806;2023-04-01T09:40:54;100446.16;;;24.78;34.26
50854;BME280;44154;45.506;-122.806;2023-04-01T09:43:28;100436.66;;;24.96;33.33
50854;BME280;44154;45.506;-122.806;2023-04-01T09:46:26;100436.44;;;25.08;33.20
50854;BME280;44154;45.506;-122.806;2023-04-01T09:54:48;100429.72;;;25.31;32.78
50854;BME280;44154;45.506;-122.806;2023-04-01T10:00:39;100422.78;;;25.18;33.22
50854;BME280;44154;45.506;-122.806;2023-04-01T10:06:17;100430.13;;;25.07;33.73
50854;BME280;44154;45.506;-122.806;2023-04-01T10:34:40;100431.78;;;25.08;33.00
50854;BME280;44154;45.506;-122.806;2023-04-01T10:36:54;100433.44;;;25.15;32.67
50854;BME280;44154;45.506;-122.806;2023-04-01T10:40:02;100433.16;;;25.16;32.68
50854;BME280;44154;45.506;-122.806;2023-04-01T11:14:41;100456.06;;;24.89;34.50
50854;BME280;44154;45.506;-122.806;2023-04-01T11:36:50;100463.50;;;24.56;37.36
50854;BME280;44154;45.506;-122.806;2023-04-01T11:42:24;100452.28;;;24.58;36.76
50854;BME280;44154;45.506;-122.806;2023-04-01T12:05:19;100483.00;;;24.65;36.27
50854;BME280;44154;45.506;-122.806;2023-04-01T12:19:26;100487.22;;;24.83;36.35
50854;BME280;44154;45.506;-122.806;2023-04-01T12:22:23;100484.19;;;24.80;36.80
50854;BME280;44154;45.506;-122.806;2023-04-01T12:24:55;100496.22;;;24.79;36.54
50854;BME280;44154;45.506;-122.806;2023-04-01T12:27:35;100499.22;;;24.77;36.51
50854;BME280;44154;45.506;-122.806;2023-04-01T12:30:30;100500.84;;;24.73;36.58
50854;BME280;44154;45.506;-122.806;2023-04-01T12:39:06;100505.53;;;24.45;36.13
50854;BME280;44154;45.506;-122.806;2023-04-01T12:41:49;100448.00;;;24.02;36.12
50854;BME280;44154;45.506;-122.806;2023-04-01T12:55:25;100520.31;;;24.82;35.93
50854;BME280;44154;45.506;-122.806;2023-04-01T13:03:41;100521.91;;;24.72;35.80
50854;BME280;44154;45.506;-122.806;2023-04-01T13:06:24;100522.72;;;24.68;35.44
50854;BME280;44154;45.506;-122.806;2023-04-01T13:28:15;100566.03;;;24.81;34.97
50854;BME280;44154;45.506;-122.806;2023-04-01T13:35:52;100572.00;;;24.73;35.35
50854;BME280;44154;45.506;-122.806;2023-04-01T13:41:19;100583.03;;;24.56;35.12
50854;BME280;44154;45.506;-122.806;2023-04-01T13:43:52;100582.38;;;24.44;35.36
50854;BME280;44154;45.506;-122.806;2023-04-01T13:46:38;100577.72;;;24.44;35.23
50854;BME280;44154;45.506;-122.806;2023-04-01T14:09:01;100613.63;;;24.75;34.57
50854;BME280;44154;45.506;-122.806;2023-04-01T14:17:29;100620.91;;;24.97;34.37
50854;BME280;44154;45.506;-122.806;2023-04-01T14:22:37;100626.53;;;25.17;34.01
50854;BME280;44154;45.506;-122.806;2023-04-01T14:47:48;100662.97;;;26.08;32.86
50854;BME280;44154;45.506;-122.806;2023-04-01T14:50:21;100662.63;;;26.00;32.52
50854;BME280;44154;45.506;-122.806;2023-04-01T14:58:15;100665.25;;;25.69;32.83
50854;BME280;44154;45.506;-122.806;2023-04-01T15:08:51;100673.91;;;25.50;33.51
50854;BME280;44154;45.506;-122.806;2023-04-01T15:14:10;100681.00;;;25.46;33.41
50854;BME280;44154;45.506;-122.806;2023-04-01T15:22:26;100679.16;;;26.05;32.71
50854;BME280;44154;45.506;-122.806;2023-04-01T15:30:48;100684.00;;;25.87;32.54
50854;BME280;44154;45.506;-122.806;2023-04-01T15:45:16;100698.09;;;25.58;33.27
50854;BME280;44154;45.506;-122.806;2023-04-01T15:53:13;100701.38;;;25.60;32.73
50854;BME280;44154;45.506;-122.806;2023-04-01T15:55:57;100697.44;;;25.89;32.60
50854;BME280;44154;45.506;-122.806;2023-04-01T16:01:28;100693.41;;;26.07;32.03
50854;BME280;44154;45.506;-122.806;2023-04-01T16:07:17;100703.47;;;25.91;32.31
50854;BME280;44154;45.506;-122.806;2023-04-01T16:15:34;100677.81;;;25.65;32.75
50854;BME280;44154;45.506;-122.806;2023-04-01T16:18:25;100698.63;;;25.60;32.91
50854;BME280;44154;45.506;-122.806;2023-04-01T16:21:10;100698.84;;;25.49;33.01
50854;BME280;44154;45.506;-122.806;2023-04-01T16:23:47;100703.47;;;25.48;33.02
50854;BME280;44154;45.506;-122.806;2023-04-01T16:26:37;100695.28;;;25.53;32.99
50854;BME280;44154;45.506;-122.806;2023-04-01T16:38:24;100707.50;;;25.78;32.78
50854;BME280;44154;45.506;-122.806;2023-04-01T16:41:10;100706.63;;;25.67;33.25
50854;BME280;44154;45.506;-122.806;2023-04-01T16:46:33;100712.81;;;25.52;33.38
50854;BME280;44154;45.506;-122.806;2023-04-01T16:49:16;100709.78;;;25.49;33.47
50854;BME280;44154;45.506;-122.806;2023-04-01T16:51:53;100713.28;;;25.39;33.68
50854;BME280;44154;45.506;-122.806;2023-04-01T16:54:43;100717.06;;;25.33;33.54
50854;BME280;44154;45.506;-122.806;2023-04-01T17:05:50;100724.66;;;26.06;33.42
50854;BME280;44154;45.506;-122.806;2023-04-01T17:11:06;100725.06;;;25.82;33.58
50854;BME280;44154;45.506;-122.806;2023-04-01T17:30:26;100734.97;;;24.86;34.19
50854;BME280;44154;45.506;-122.806;2023-04-01T17:44:31;100751.66;;;25.11;33.58
50854;BME280;44154;45.506;-122.806;2023-04-01T17:50:09;100752.94;;;25.04;33.50
50854;BME280;44154;45.506;-122.806;2023-04-01T17:52:42;100747.16;;;25.00;33.61
50854;BME280;44154;45.506;-122.806;2023-04-01T17:55:34;100751.22;;;24.98;33.41
50854;BME280;44154;45.506;-122.806;2023-04-01T17:58:21;100757.19;;;24.89;33.76
50854;BME280;44154;45.506;-122.806;2023-04-01T18:01:10;100756.56;;;24.82;33.87
50854;BME280;44154;45.506;-122.806;2023-04-01T18:11:58;100760.69;;;25.12;33.31
50854;BME280;44154;45.506;-122.806;2023-04-01T18:14:53;100761.19;;;25.09;33.15
50854;BME280;44154;45.506;-122.806;2023-04-01T18:17:24;100763.38;;;25.07;33.29
50854;BME280;44154;45.506;-122.806;2023-04-01T18:23:19;100762.25;;;25.03;32.94
50854;BME280;44154;45.506;-122.806;2023-04-01T18:25:49;100759.16;;;24.94;33.14
50854;BME280;44154;45.506;-122.806;2023-04-01T18:36:13;100758.16;;;25.05;33.30
50854;BME280;44154;45.506;-122.806;2023-04-01T18:38:52;100752.47;;;25.12;32.87
50854;BME280;44154;45.506;-122.806;2023-04-01T18:41:31;100756.84;;;25.13;32.82
50854;BME280;44154;45.506;-122.806;2023-04-01T19:00:22;100779.28;;;24.83;33.06
50854;BME280;44154;45.506;-122.806;2023-04-01T19:02:58;100765.03;;;24.81;33.54
50854;BME280;44154;45.506;-122.806;2023-04-01T19:05:33;100770.41;;;24.98;33.06
50854;BME280;44154;45.506;-122.806;2023-04-01T19:08:30;100757.13;;;25.11;32.77
50854;BME280;44154;45.506;-122.806;2023-04-01T19:11:21;100753.34;;;25.18;32.65
50854;BME280;44154;45.506;-122.806;2023-04-01T19:17:10;100752.72;;;25.10;32.63
50854;BME280;44154;45.506;-122.806;2023-04-01T19:19:58;100746.94;;;25.07;32.64
50854;BME280;44154;45.506;-122.806;2023-04-01T19:28:21;100753.97;;;24.98;32.62
50854;BME280;44154;45.506;-122.806;2023-04-01T19:39:22;100787.13;;;25.28;32.54
50854;BME280;44154;45.506;-122.806;2023-04-01T19:42:06;100808.56;;;25.32;32.25
50854;BME280;44154;45.506;-122.806;2023-04-01T19:44:39;100813.69;;;25.28;32.38
50854;BME280;44154;45.506;-122.806;2023-04-01T19:52:54;100791.38;;;25.14;32.32
50854;BME280;44154;45.506;-122.806;2023-04-01T19:55:34;100783.44;;;25.13;32.33
50854;BME280;44154;45.506;-122.806;2023-04-01T19:58:14;100800.06;;;25.06;32.22
50854;BME280;44154;45.506;-122.806;2023-04-01T20:01:14;100794.75;;;24.94;32.55
50854;BME280;44154;45.506;-122.806;2023-04-01T20:03:56;100782.38;;;24.91;32.85
50854;BME280;44154;45.506;-122.806;2023-04-01T20:12:14;100777.34;;;25.33;32.22
50854;BME280;44154;45.506;-122.806;2023-04-01T20:14:54;100770.03;;;25.43;31.57
50854;BME280;44154;45.506;-122.806;2023-04-01T20:17:52;100771.41;;;25.46;31.85
50854;BME280;44154;45.506;-122.806;2023-04-01T20:20:28;100763.47;;;25.44;32.21
50854;BME280;44154;45.506;-122.806;2023-04-01T20:23:05;100779.91;;;25.44;31.79
50854;BME280;44154;45.506;-122.806;2023-04-01T20:26:21;100769.75;;;25.45;32.08
50854;BME280;44154;45.506;-122.806;2023-04-01T20:31:39;100765.88;;;25.41;32.17
50854;BME280;44154;45.506;-122.806;2023-04-01T20:34:33;100767.53;;;25.37;32.62
50854;BME280;44154;45.506;-122.806;2023-04-01T20:37:35;100766.38;;;25.33;32.28
50854;BME280;44154;45.506;-122.806;2023-04-01T20:43:01;100756.41;;;25.21;32.74
50854;BME280;44154;45.506;-122.806;2023-04-01T20:45:38;100775.91;;;25.57;32.29
50854;BME280;44154;45.506;-122.806;2023-04-01T20:51:18;100778.19;;;25.71;31.90
50854;BME280;44154;45.506;-122.806;2023-04-01T21:00:27;100764.94;;;25.57;32.01
50854;BME280;44154;45.506;-122.806;2023-04-01T21:22:54;100782.75;;;25.97;31.08
50854;BME280;44154;45.506;-122.806;2023-04-01T21:30:49;100770.06;;;25.91;31.18
50854;BME280;44154;45.506;-122.806;2023-04-01T21:33:39;100778.03;;;25.88;31.13
50854;BME280;44154;45.506;-122.806;2023-04-01T21:42:16;100769.47;;;25.79;31.50
50854;BME280;44154;45.506;-122.806;2023-04-01T21:47:47;100768.59;;;25.73;31.71
50854;BME280;44154;45.506;-122.806;2023-04-01T22:01:40;100752.97;;;25.69;32.19
50854;BME280;44154;45.506;-122.806;2023-04-01T22:04:20;100752.97;;;25.69;32.03
50854;BME280;44154;45.506;-122.806;2023-04-01T22:07:14;100753.19;;;25.62;31.93
50854;BME280;44154;45.506;-122.806;2023-04-01T22:09:52;100759.44;;;25.57;32.05
50854;BME280;44154;45.506;-122.806;2023-04-01T22:18:12;100744.13;;;25.61;32.16
50854;BME280;44154;45.506;-122.806;2023-04-01T22:20:53;100756.47;;;25.64;32.19
50854;BME280;44154;45.506;-122.806;2023-04-01T22:26:42;100743.00;;;26.00;31.74
50854;BME280;44154;45.506;-122.806;2023-04-01T22:31:54;100755.94;;;26.05;31.31
50854;BME280;44154;45.506;-122.806;2023-04-01T22:34:42;100757.56;;;26.01;31.29
50854;BME280;44154;45.506;-122.806;2023-04-01T22:40:12;100755.13;;;25.67;32.01
50854;BME280;44154;45.506;-122.806;2023-04-01T22:42:58;100772.16;;;25.74;31.63
50854;BME280;44154;45.506;-122.806;2023-04-01T22:48:44;100792.88;;;25.59;32.00
50854;BME280;44154;45.506;-122.806;2023-04-01T22:51:24;100786.25;;;25.50;32.37